createdAt,value
2018-10-02T00:00:50.036Z,3.60
2018-10-02T00:01:50.016Z,4.10
2018-10-02T00:02:50.001Z,4.20
2018-10-02T00:03:49.982Z,3.80
2018-10-02T00:04:49.961Z,3.90
2018-10-02T00:05:49.938Z,3.90
2018-10-02T00:06:49.924Z,3.90
2018-10-02T00:07:49.904Z,4.40
2018-10-02T00:08:49.886Z,4.10
2018-10-02T00:09:49.870Z,3.80
2018-10-02T00:10:49.880Z,3.90
2018-10-02T00:11:49.837Z,4.70
2018-10-02T00:12:49.819Z,3.90
2018-10-02T00:13:49.793Z,4.10
2018-10-02T00:14:49.782Z,4.60
2018-10-02T00:15:49.757Z,4.50
2018-10-02T00:16:49.737Z,4.80
2018-10-02T00:17:49.721Z,4.80
2018-10-02T00:18:49.700Z,4.10
2018-10-02T00:19:49.681Z,4.30
2018-10-02T00:20:49.661Z,4.50
2018-10-02T00:21:49.641Z,4.60
2018-10-02T00:22:49.624Z,3.90
2018-10-02T00:23:49.604Z,4.00
2018-10-02T00:24:49.588Z,4.80
2018-10-02T00:25:49.570Z,4.30
2018-10-02T00:26:49.557Z,4.10
2018-10-02T00:27:49.531Z,4.30
2018-10-02T00:28:49.514Z,4.10
2018-10-02T00:29:49.493Z,5.00
2018-10-02T00:30:49.472Z,4.90
2018-10-02T00:31:49.563Z,4.70
2018-10-02T00:32:49.437Z,4.20
2018-10-02T00:33:49.416Z,5.10
2018-10-02T00:34:49.405Z,4.40
2018-10-02T00:35:49.380Z,4.40
2018-10-02T00:36:49.358Z,4.00
2018-10-02T00:37:49.339Z,4.70
2018-10-02T00:38:49.319Z,4.50
2018-10-02T00:39:49.302Z,4.40
2018-10-02T00:40:49.285Z,4.40
2018-10-02T00:41:49.264Z,4.60
2018-10-02T00:42:49.563Z,4.20
2018-10-02T00:43:49.231Z,4.30
2018-10-02T00:44:49.209Z,4.10
2018-10-02T00:45:49.189Z,4.00
2018-10-02T00:46:49.170Z,4.20
2018-10-02T00:47:49.151Z,4.40
2018-10-02T00:48:49.133Z,4.60
2018-10-02T00:49:49.112Z,4.50
2018-10-02T00:50:49.095Z,4.60
2018-10-02T00:51:49.078Z,4.80
2018-10-02T00:52:49.057Z,4.80
2018-10-02T00:53:49.037Z,4.30
2018-10-02T00:54:49.025Z,4.70
2018-10-02T00:55:49.003Z,4.70
2018-10-02T00:56:48.984Z,4.80
2018-10-02T00:57:48.962Z,5.00
2018-10-02T00:58:48.952Z,5.10
2018-10-02T00:59:49.240Z,5.00
2018-10-02T01:00:48.907Z,5.00
2018-10-02T01:01:48.886Z,5.10
2018-10-02T01:02:48.871Z,4.80
2018-10-02T01:03:48.851Z,5.00
2018-10-02T01:04:48.833Z,4.80
2018-10-02T01:05:48.811Z,5.00
2018-10-02T01:06:48.796Z,5.50
2018-10-02T01:07:48.775Z,5.20
2018-10-02T01:08:48.757Z,5.60
2018-10-02T01:09:48.734Z,5.60
2018-10-02T01:10:48.717Z,6.00
2018-10-02T01:11:48.697Z,5.40
2018-10-02T01:12:48.677Z,5.50
2018-10-02T01:13:48.660Z,5.00
2018-10-02T01:14:48.652Z,5.70
2018-10-02T01:15:48.621Z,6.00
2018-10-02T01:16:48.608Z,6.30
2018-10-02T01:17:48.584Z,5.80
2018-10-02T01:18:48.571Z,5.60
2018-10-02T01:19:48.555Z,6.00
2018-10-02T01:20:48.526Z,5.70
2018-10-02T01:21:48.510Z,6.40
2018-10-02T01:22:48.491Z,5.70
2018-10-02T01:23:48.686Z,5.40
2018-10-02T01:24:48.453Z,5.20
2018-10-02T01:25:48.434Z,6.10
2018-10-02T01:26:48.417Z,5.80
2018-10-02T01:27:48.397Z,5.70
2018-10-02T01:28:48.376Z,6.40
2018-10-02T01:29:48.358Z,5.50
2018-10-02T01:30:48.341Z,6.00
2018-10-02T01:31:48.323Z,5.80
2018-10-02T01:32:48.306Z,5.70
2018-10-02T01:33:48.285Z,6.10
2018-10-02T01:34:48.265Z,6.30
2018-10-02T01:35:48.250Z,5.80
2018-10-02T01:36:48.228Z,6.30
2018-10-02T01:37:48.207Z,6.30
2018-10-02T01:38:48.187Z,6.10
2018-10-02T01:39:48.173Z,5.60
2018-10-02T01:40:48.149Z,6.30
2018-10-02T01:41:48.135Z,5.50
2018-10-02T01:42:48.164Z,6.00
2018-10-02T01:43:48.094Z,5.90
2018-10-02T01:44:48.109Z,5.90
2018-10-02T01:45:48.370Z,5.30
2018-10-02T01:46:48.040Z,5.50
2018-10-02T01:47:48.050Z,6.10
2018-10-02T01:48:48.000Z,6.10
2018-10-02T01:49:47.982Z,5.70
2018-10-02T01:50:48.691Z,5.80
2018-10-02T01:51:47.944Z,6.00
2018-10-02T01:52:47.927Z,6.40
2018-10-02T01:53:47.905Z,6.10
2018-10-02T01:54:47.886Z,5.90
2018-10-02T01:55:47.868Z,5.90
2018-10-02T01:56:47.849Z,5.20
2018-10-02T01:57:47.831Z,5.80
2018-10-02T01:58:47.816Z,6.40
2018-10-02T01:59:47.793Z,5.50
2018-10-02T02:00:47.781Z,5.90
2018-10-02T02:01:47.755Z,6.40
2018-10-02T02:02:47.737Z,5.70
2018-10-02T02:03:47.718Z,6.20
2018-10-02T02:04:47.704Z,5.90
2018-10-02T02:05:47.687Z,6.00
2018-10-02T02:06:47.660Z,6.10
2018-10-02T02:07:47.646Z,6.10
2018-10-02T02:08:47.626Z,6.00
2018-10-02T02:09:47.609Z,6.10
2018-10-02T02:10:47.589Z,6.00
2018-10-02T02:11:47.569Z,6.10
2018-10-02T02:12:47.550Z,6.00
2018-10-02T02:13:47.542Z,5.90
2018-10-02T02:14:47.511Z,6.50
2018-10-02T02:15:47.826Z,6.40
2018-10-02T02:16:47.475Z,6.10
2018-10-02T02:17:47.455Z,6.10
2018-10-02T02:18:47.437Z,6.10
2018-10-02T02:19:47.416Z,6.10
2018-10-02T02:20:47.407Z,6.10
2018-10-02T02:21:47.379Z,6.30
2018-10-02T02:22:47.361Z,6.20
2018-10-02T02:23:47.348Z,5.70
2018-10-02T02:24:47.324Z,6.10
2018-10-02T02:25:47.305Z,6.30
2018-10-02T02:26:47.285Z,6.20
2018-10-02T02:27:47.268Z,6.10
2018-10-02T02:28:47.252Z,5.80
2018-10-02T02:29:47.231Z,5.30
2018-10-02T02:30:47.211Z,6.40
2018-10-02T02:31:47.192Z,6.50
2018-10-02T02:32:47.176Z,5.80
2018-10-02T02:33:47.151Z,5.70
2018-10-02T02:34:47.138Z,6.00
2018-10-02T02:35:47.118Z,5.80
2018-10-02T02:36:47.105Z,6.00
2018-10-02T02:37:47.078Z,5.40
2018-10-02T02:38:47.058Z,6.00
2018-10-02T02:39:47.042Z,5.80
2018-10-02T02:40:47.019Z,5.70
2018-10-02T02:41:47.004Z,5.90
2018-10-02T02:42:46.987Z,5.60
2018-10-02T02:43:46.964Z,5.70
2018-10-02T02:44:46.942Z,5.90
2018-10-02T02:45:46.924Z,5.70
2018-10-02T02:46:46.911Z,6.30
2018-10-02T02:47:46.885Z,6.00
2018-10-02T02:48:46.866Z,5.50
2018-10-02T02:49:46.847Z,5.90
2018-10-02T02:50:46.833Z,5.00
2018-10-02T02:51:46.820Z,5.80
2018-10-02T02:52:46.864Z,5.80
2018-10-02T02:53:46.773Z,5.70
2018-10-02T02:54:46.755Z,5.80
2018-10-02T02:55:46.737Z,5.70
2018-10-02T02:56:46.716Z,6.10
2018-10-02T02:57:46.697Z,5.80
2018-10-02T02:58:46.680Z,6.10
2018-10-02T02:59:46.661Z,5.20
2018-10-02T03:00:46.643Z,6.30
2018-10-02T03:01:46.622Z,5.70
2018-10-02T03:02:46.605Z,5.20
2018-10-02T03:03:46.584Z,5.90
2018-10-02T03:04:46.568Z,6.00
2018-10-02T03:05:46.545Z,5.50
2018-10-02T03:06:46.527Z,5.60
2018-10-02T03:07:46.508Z,5.60
2018-10-02T03:08:46.492Z,5.10
2018-10-02T03:09:46.476Z,5.10
2018-10-02T03:10:46.453Z,5.50
2018-10-02T03:11:46.433Z,5.40
2018-10-02T03:12:46.428Z,5.60
2018-10-02T03:13:46.395Z,5.50
2018-10-02T03:14:46.381Z,5.80
2018-10-02T03:15:46.364Z,5.30
2018-10-02T03:16:46.341Z,5.10
2018-10-02T03:17:46.321Z,5.40
2018-10-02T03:18:46.303Z,5.00
2018-10-02T03:19:46.283Z,5.60
2018-10-02T03:20:46.266Z,5.10
2018-10-02T03:21:46.310Z,5.20
2018-10-02T03:22:46.227Z,5.10
2018-10-02T03:23:46.208Z,5.00
2018-10-02T03:24:46.191Z,4.90
2018-10-02T03:25:46.171Z,5.60
2018-10-02T03:26:46.153Z,5.30
2018-10-02T03:27:46.144Z,5.50
2018-10-02T03:28:46.121Z,4.80
2018-10-02T03:29:46.096Z,4.90
2018-10-02T03:30:46.077Z,5.10
2018-10-02T03:31:46.063Z,5.40
2018-10-02T03:32:46.041Z,5.00
2018-10-02T03:33:46.020Z,4.90
2018-10-02T03:34:46.005Z,5.20
2018-10-02T03:35:45.986Z,4.70
2018-10-02T03:36:45.965Z,4.80
2018-10-02T03:37:46.011Z,5.30
2018-10-02T03:38:45.930Z,4.40
2018-10-02T03:39:45.908Z,4.70
2018-10-02T03:40:45.891Z,4.80
2018-10-02T03:41:45.901Z,4.80
2018-10-02T03:42:45.850Z,5.00
2018-10-02T03:43:45.833Z,5.10
2018-10-02T03:44:45.814Z,4.90
2018-10-02T03:45:45.798Z,4.50
2018-10-02T03:46:45.780Z,4.40
2018-10-02T03:47:45.757Z,4.40
2018-10-02T03:48:45.784Z,4.60
2018-10-02T03:49:45.719Z,5.10
2018-10-02T03:50:45.703Z,4.70
2018-10-02T03:51:45.684Z,4.40
2018-10-02T03:52:45.664Z,4.90
2018-10-02T03:53:45.644Z,4.50
2018-10-02T03:54:45.624Z,4.80
2018-10-02T03:55:45.609Z,4.70
2018-10-02T03:56:45.594Z,4.60
2018-10-02T03:57:45.569Z,4.90
2018-10-02T03:58:45.553Z,5.00
2018-10-02T03:59:45.540Z,5.10
2018-10-02T04:00:45.513Z,4.70
2018-10-02T04:01:45.495Z,5.60
2018-10-02T04:02:45.478Z,5.30
2018-10-02T04:03:45.456Z,5.40
2018-10-02T04:04:45.440Z,5.40
2018-10-02T04:05:45.419Z,5.80
2018-10-02T04:06:45.402Z,5.80
2018-10-02T04:07:45.381Z,5.90
2018-10-02T04:08:45.362Z,5.60
2018-10-02T04:09:45.342Z,6.60
2018-10-02T04:10:45.323Z,7.00
2018-10-02T04:11:45.305Z,6.80
2018-10-02T04:12:45.287Z,6.30
2018-10-02T04:13:45.268Z,7.20
2018-10-02T04:14:45.247Z,7.20
2018-10-02T04:15:45.230Z,7.30
2018-10-02T04:16:45.214Z,7.60
2018-10-02T04:17:45.194Z,7.50
2018-10-02T04:18:45.182Z,7.70
2018-10-02T04:19:45.153Z,8.10
2018-10-02T04:20:45.242Z,8.20
2018-10-02T04:21:45.118Z,8.00
2018-10-02T04:22:45.098Z,8.00
2018-10-02T04:23:45.181Z,8.30
2018-10-02T04:24:45.063Z,8.20
2018-10-02T04:25:45.041Z,8.80
2018-10-02T04:26:45.027Z,8.70
2018-10-02T04:27:45.010Z,8.90
2018-10-02T04:28:44.987Z,8.50
2018-10-02T04:29:44.969Z,8.90
2018-10-02T04:30:44.952Z,8.70
2018-10-02T04:31:44.937Z,8.60
2018-10-02T04:32:44.917Z,8.30
2018-10-02T04:33:44.947Z,7.80
2018-10-02T04:34:44.877Z,8.40
2018-10-02T04:35:44.858Z,7.80
2018-10-02T04:36:44.841Z,9.10
2018-10-02T04:37:44.822Z,8.30
2018-10-02T04:38:44.806Z,7.60
2018-10-02T04:39:44.793Z,8.80
2018-10-02T04:40:44.764Z,8.50
2018-10-02T04:41:44.746Z,8.10
2018-10-02T04:42:44.729Z,8.40
2018-10-02T04:43:44.707Z,8.20
2018-10-02T04:44:44.689Z,8.00
2018-10-02T04:45:44.669Z,8.20
2018-10-02T04:46:44.717Z,8.10
2018-10-02T04:47:44.636Z,7.70
2018-10-02T04:48:44.612Z,7.40
2018-10-02T04:49:44.608Z,8.00
2018-10-02T04:50:44.653Z,7.30
2018-10-02T04:51:44.558Z,8.20
2018-10-02T04:52:44.537Z,7.70
2018-10-02T04:53:44.518Z,7.50
2018-10-02T04:54:44.498Z,7.70
2018-10-02T04:55:44.556Z,7.10
2018-10-02T04:56:44.463Z,7.90
2018-10-02T04:57:44.444Z,7.40
2018-10-02T04:58:44.425Z,6.90
2018-10-02T04:59:44.405Z,6.80
2018-10-02T05:00:44.388Z,7.60
2018-10-02T05:01:44.369Z,7.60
2018-10-02T05:02:44.353Z,6.90
2018-10-02T05:03:44.340Z,7.20
2018-10-02T05:04:44.313Z,7.60
2018-10-02T05:05:44.292Z,7.10
2018-10-02T05:06:44.276Z,8.00
2018-10-02T05:07:44.269Z,7.90
2018-10-02T05:08:44.275Z,7.60
2018-10-02T05:09:44.222Z,7.90
2018-10-02T05:10:44.208Z,7.90
2018-10-02T05:11:44.183Z,7.90
2018-10-02T05:12:44.162Z,7.70
2018-10-02T05:13:44.143Z,7.70
2018-10-02T05:14:44.124Z,7.50
2018-10-02T05:15:44.105Z,8.10
2018-10-02T05:16:44.092Z,7.30
2018-10-02T05:17:44.068Z,8.00
2018-10-02T05:18:44.055Z,7.30
2018-10-02T05:19:44.031Z,7.80
2018-10-02T05:20:44.074Z,7.90
2018-10-02T05:21:43.992Z,8.50
2018-10-02T05:22:43.979Z,7.90
2018-10-02T05:23:43.956Z,8.20
2018-10-02T05:24:43.938Z,8.10
2018-10-02T05:25:43.924Z,8.90
2018-10-02T05:26:43.901Z,8.10
2018-10-02T05:27:43.965Z,8.20
2018-10-02T05:28:43.867Z,8.00
2018-10-02T05:29:43.848Z,7.70
2018-10-02T05:30:43.825Z,8.00
2018-10-02T05:31:43.806Z,8.30
2018-10-02T05:32:43.788Z,8.20
2018-10-02T05:33:43.771Z,8.10
2018-10-02T05:34:43.755Z,8.20
2018-10-02T05:35:43.735Z,8.20
2018-10-02T05:36:43.713Z,7.80
2018-10-02T05:37:43.698Z,8.60
2018-10-02T05:38:43.677Z,8.20
2018-10-02T05:39:43.658Z,8.00
2018-10-02T05:40:43.639Z,8.30
2018-10-02T05:41:43.620Z,8.00
2018-10-02T05:42:43.660Z,8.00
2018-10-02T05:43:43.586Z,8.30
2018-10-02T05:44:43.567Z,8.50
2018-10-02T05:45:43.546Z,8.10
2018-10-02T05:46:43.527Z,8.00
2018-10-02T05:47:43.512Z,8.10
2018-10-02T05:48:43.490Z,8.20
2018-10-02T05:49:43.470Z,8.30
2018-10-02T05:50:43.528Z,8.10
2018-10-02T05:51:43.436Z,7.30
2018-10-02T05:52:43.420Z,7.70
2018-10-02T05:53:43.396Z,8.30
2018-10-02T05:54:43.380Z,7.90
2018-10-02T05:55:43.360Z,8.20
2018-10-02T05:56:43.342Z,8.80
2018-10-02T05:57:43.324Z,7.40
2018-10-02T05:58:43.304Z,8.30
2018-10-02T05:59:43.287Z,8.00
2018-10-02T06:00:43.264Z,7.80
2018-10-02T06:01:43.245Z,8.10
2018-10-02T06:02:43.236Z,7.80
2018-10-02T06:03:43.262Z,7.40
2018-10-02T06:04:43.188Z,7.90
2018-10-02T06:05:43.169Z,7.10
2018-10-02T06:06:43.154Z,7.60
2018-10-02T06:07:43.135Z,7.90
2018-10-02T06:08:43.132Z,7.70
2018-10-02T06:09:43.143Z,7.50
2018-10-02T06:10:43.076Z,8.10
2018-10-02T06:11:43.057Z,7.50
2018-10-02T06:12:43.040Z,7.10
2018-10-02T06:13:43.020Z,7.40
2018-10-02T06:14:43.010Z,7.70
2018-10-02T06:15:42.984Z,7.30
2018-10-02T06:16:42.964Z,7.40
2018-10-02T06:17:42.948Z,8.30
2018-10-02T06:18:42.936Z,7.40
2018-10-02T06:19:42.913Z,7.30
2018-10-02T06:20:42.897Z,7.50
2018-10-02T06:21:42.873Z,7.40
2018-10-02T06:22:42.852Z,7.50
2018-10-02T06:23:42.831Z,7.90
2018-10-02T06:24:42.886Z,7.00
2018-10-02T06:25:42.798Z,7.00
2018-10-02T06:26:42.775Z,7.10
2018-10-02T06:27:42.757Z,7.10
2018-10-02T06:28:42.738Z,6.90
2018-10-02T06:29:42.719Z,7.50
2018-10-02T06:30:42.703Z,7.20
2018-10-02T06:31:42.681Z,7.40
2018-10-02T06:32:42.690Z,7.10
2018-10-02T06:33:42.648Z,7.70
2018-10-02T06:34:42.637Z,7.10
2018-10-02T06:35:42.611Z,6.60
2018-10-02T06:36:42.616Z,6.80
2018-10-02T06:37:42.570Z,6.80
2018-10-02T06:38:42.583Z,7.40
2018-10-02T06:39:42.534Z,6.80
2018-10-02T06:40:42.517Z,7.10
2018-10-02T06:41:42.514Z,7.30
2018-10-02T06:42:42.480Z,7.70
2018-10-02T06:43:42.525Z,7.80
2018-10-02T06:44:42.517Z,6.70
2018-10-02T06:45:42.423Z,6.90
2018-10-02T06:46:42.413Z,7.10
2018-10-02T06:47:42.386Z,7.20
2018-10-02T06:48:42.375Z,7.40
2018-10-02T06:49:42.349Z,7.20
2018-10-02T06:50:42.435Z,6.70
2018-10-02T06:51:42.401Z,6.90
2018-10-02T06:52:42.638Z,7.40
2018-10-02T06:53:42.274Z,7.30
2018-10-02T06:54:42.254Z,6.90
2018-10-02T06:55:42.234Z,7.80
2018-10-02T06:56:42.311Z,7.70
2018-10-02T06:57:42.194Z,7.70
2018-10-02T06:58:42.176Z,8.00
2018-10-02T06:59:42.160Z,7.50
2018-10-02T07:00:42.240Z,7.00
2018-10-02T07:01:42.123Z,7.00
2018-10-02T07:02:42.203Z,7.80
2018-10-02T07:03:42.085Z,7.60
2018-10-02T07:04:42.066Z,7.30
2018-10-02T07:05:42.047Z,8.10
2018-10-02T07:06:42.097Z,7.90
2018-10-02T07:07:42.008Z,7.30
2018-10-02T07:08:42.031Z,7.40
2018-10-02T07:09:41.970Z,6.70
2018-10-02T07:10:41.951Z,6.70
2018-10-02T07:11:41.933Z,7.20
2018-10-02T07:12:41.988Z,7.00
2018-10-02T07:13:41.901Z,6.70
2018-10-02T07:14:41.910Z,7.20
2018-10-02T07:15:41.857Z,6.80
2018-10-02T07:16:41.840Z,7.80
2018-10-02T07:17:41.824Z,7.40
2018-10-02T07:18:41.802Z,6.80
2018-10-02T07:19:41.787Z,6.80
2018-10-02T07:20:41.912Z,7.20
2018-10-02T07:21:41.748Z,6.80
2018-10-02T07:22:41.732Z,6.90
2018-10-02T07:23:41.707Z,7.20
2018-10-02T07:24:41.691Z,6.90
2018-10-02T07:25:41.671Z,6.70
2018-10-02T07:26:41.788Z,6.90
2018-10-02T07:27:41.707Z,7.40
2018-10-02T07:28:41.616Z,7.10
2018-10-02T07:29:41.601Z,7.20
2018-10-02T07:30:41.665Z,6.80
2018-10-02T07:31:41.560Z,6.90
2018-10-02T07:32:41.574Z,6.60
2018-10-02T07:33:41.544Z,7.90
2018-10-02T07:34:41.506Z,7.30
2018-10-02T07:35:41.486Z,7.00
2018-10-02T07:36:41.565Z,6.50
2018-10-02T07:37:41.449Z,7.60
2018-10-02T07:38:41.533Z,6.10
2018-10-02T07:39:41.412Z,6.70
2018-10-02T07:40:41.391Z,6.80
2018-10-02T07:41:41.651Z,6.90
2018-10-02T07:42:41.362Z,6.40
2018-10-02T07:43:41.397Z,7.10
2018-10-02T07:44:41.400Z,6.70
2018-10-02T07:45:41.309Z,6.70
2018-10-02T07:46:41.284Z,6.60
2018-10-02T07:47:41.357Z,6.90
2018-10-02T07:48:41.245Z,6.90
2018-10-02T07:49:41.228Z,6.60
2018-10-02T07:50:41.359Z,7.10
2018-10-02T07:51:41.189Z,6.40
2018-10-02T07:52:41.172Z,7.20
2018-10-02T07:53:41.389Z,6.70
2018-10-02T07:54:41.131Z,7.30
2018-10-02T07:55:41.212Z,7.40
2018-10-02T07:56:41.236Z,6.80
2018-10-02T07:57:41.078Z,7.00
2018-10-02T07:58:41.060Z,7.00
2018-10-02T07:59:41.185Z,6.50
2018-10-02T08:00:41.029Z,6.70
2018-10-02T08:01:41.004Z,6.60
2018-10-02T08:02:41.087Z,7.30
2018-10-02T08:03:40.972Z,6.40
2018-10-02T08:04:41.014Z,6.60
2018-10-02T08:05:41.009Z,5.50
2018-10-02T08:06:41.223Z,6.50
2018-10-02T08:07:40.888Z,5.80
2018-10-02T08:08:40.918Z,6.80
2018-10-02T08:09:40.853Z,6.80
2018-10-02T08:10:40.837Z,6.60
2018-10-02T08:11:40.986Z,6.60
2018-10-02T08:12:40.804Z,6.00
2018-10-02T08:13:40.853Z,7.30
2018-10-02T08:14:40.779Z,6.70
2018-10-02T08:15:40.746Z,6.50
2018-10-02T08:16:40.727Z,6.50
2018-10-02T08:17:40.772Z,6.60
2018-10-02T08:18:40.765Z,6.40
2018-10-02T08:19:40.675Z,6.90
2018-10-02T08:20:40.797Z,5.80
2018-10-02T08:21:40.629Z,5.80
2018-10-02T08:22:40.612Z,5.80
2018-10-02T08:23:40.651Z,6.00
2018-10-02T08:24:40.574Z,6.00
2018-10-02T08:25:40.565Z,5.50
2018-10-02T08:26:40.685Z,5.90
2018-10-02T08:27:40.519Z,5.60
2018-10-02T08:28:40.560Z,5.50
2018-10-02T08:29:40.600Z,5.50
2018-10-02T08:30:40.465Z,5.40
2018-10-02T08:31:40.446Z,5.50
2018-10-02T08:32:40.451Z,5.70
2018-10-02T08:33:40.408Z,5.30
2018-10-02T08:34:40.386Z,4.90
2018-10-02T08:35:40.447Z,5.60
2018-10-02T08:36:40.353Z,5.70
2018-10-02T08:37:40.352Z,5.50
2018-10-02T08:38:40.425Z,5.70
2018-10-02T08:39:40.297Z,5.70
2018-10-02T08:40:40.276Z,5.90
2018-10-02T08:41:40.277Z,5.90
2018-10-02T08:42:40.248Z,4.70
2018-10-02T08:43:40.264Z,5.10
2018-10-02T08:44:40.333Z,5.00
2018-10-02T08:45:40.183Z,5.20
2018-10-02T08:46:40.165Z,5.40
2018-10-02T08:47:40.253Z,5.30
2018-10-02T08:48:40.128Z,6.00
2018-10-02T08:49:40.109Z,5.60
2018-10-02T08:50:40.201Z,5.40
2018-10-02T08:51:40.139Z,6.00
2018-10-02T08:52:40.053Z,5.10
2018-10-02T08:53:40.105Z,5.40
2018-10-02T08:54:40.020Z,5.20
2018-10-02T08:55:39.999Z,6.00
2018-10-02T08:56:39.979Z,5.90
2018-10-02T08:57:39.967Z,5.60
2018-10-02T08:58:39.940Z,5.70
2018-10-02T08:59:39.922Z,6.30
2018-10-02T09:00:39.937Z,5.80
2018-10-02T09:01:39.895Z,5.30
2018-10-02T09:02:39.885Z,5.20
2018-10-02T09:03:39.850Z,5.80
2018-10-02T09:04:39.830Z,6.60
2018-10-02T09:05:39.808Z,6.00
2018-10-02T09:06:39.854Z,6.00
2018-10-02T09:07:39.776Z,5.00
2018-10-02T09:08:39.754Z,5.70
2018-10-02T09:09:39.733Z,6.30
2018-10-02T09:10:39.716Z,6.70
2018-10-02T09:11:39.710Z,6.80
2018-10-02T09:12:39.815Z,6.80
2018-10-02T09:13:39.687Z,7.10
2018-10-02T09:14:39.640Z,5.90
2018-10-02T09:15:39.709Z,7.20
2018-10-02T09:16:39.858Z,6.90
2018-10-02T09:17:39.585Z,7.80
2018-10-02T09:18:39.592Z,7.10
2018-10-02T09:19:39.549Z,7.30
2018-10-02T09:20:39.582Z,7.60
2018-10-02T09:21:39.540Z,7.50
2018-10-02T09:22:39.493Z,7.70
2018-10-02T09:23:39.489Z,7.60
2018-10-02T09:24:39.497Z,7.20
2018-10-02T09:25:39.437Z,7.10
2018-10-02T09:26:39.415Z,6.70
2018-10-02T09:27:39.531Z,7.30
2018-10-02T09:28:39.773Z,7.90
2018-10-02T09:29:39.361Z,7.40
2018-10-02T09:30:39.363Z,8.40
2018-10-02T09:31:39.324Z,7.20
2018-10-02T09:32:39.305Z,8.30
2018-10-02T09:33:39.297Z,8.90
2018-10-02T09:34:39.267Z,8.20
2018-10-02T09:35:39.249Z,8.10
2018-10-02T09:36:39.311Z,9.00
2018-10-02T09:37:39.214Z,8.50
2018-10-02T09:38:39.194Z,9.00
2018-10-02T09:39:39.251Z,9.00
2018-10-02T09:40:39.159Z,8.80
2018-10-02T09:41:39.139Z,8.80
2018-10-02T09:42:39.238Z,8.30
2018-10-02T09:43:39.291Z,8.60
2018-10-02T09:44:39.086Z,8.50
2018-10-02T09:45:39.109Z,8.30
2018-10-02T09:46:39.047Z,8.70
2018-10-02T09:47:39.027Z,8.60
2018-10-02T09:48:39.073Z,8.50
2018-10-02T09:49:39.038Z,8.10
2018-10-02T09:50:39.052Z,8.30
2018-10-02T09:51:38.980Z,7.70
2018-10-02T09:52:38.938Z,8.40
2018-10-02T09:53:38.940Z,8.00
2018-10-02T09:54:39.036Z,8.10
2018-10-02T09:55:38.885Z,8.40
2018-10-02T09:56:38.970Z,8.40
2018-10-02T09:57:38.846Z,9.60
2018-10-02T09:58:38.927Z,7.50
2018-10-02T09:59:38.808Z,8.90
2018-10-02T10:00:38.896Z,8.70
2018-10-02T10:01:38.768Z,8.50
2018-10-02T10:02:38.797Z,8.40
2018-10-02T10:03:38.733Z,8.60
2018-10-02T10:04:38.714Z,8.30
2018-10-02T10:05:38.700Z,9.20
2018-10-02T10:06:38.676Z,8.30
2018-10-02T10:07:38.665Z,8.40
2018-10-02T10:08:38.641Z,8.60
2018-10-02T10:09:38.618Z,8.90
2018-10-02T10:10:38.709Z,8.70
2018-10-02T10:11:38.591Z,8.90
2018-10-02T10:12:38.563Z,9.40
2018-10-02T10:13:38.545Z,8.70
2018-10-02T10:14:38.529Z,9.10
2018-10-02T10:15:38.515Z,8.50
2018-10-02T10:16:38.557Z,8.50
2018-10-02T10:17:38.472Z,8.80
2018-10-02T10:18:38.453Z,9.90
2018-10-02T10:19:38.449Z,10.70
2018-10-02T10:20:38.439Z,9.70
2018-10-02T10:21:38.398Z,9.50
2018-10-02T10:22:38.411Z,10.10
2018-10-02T10:23:38.361Z,9.90
2018-10-02T10:24:38.344Z,9.80
2018-10-02T10:25:38.336Z,10.00
2018-10-02T10:26:38.344Z,9.80
2018-10-02T10:27:38.293Z,10.10
2018-10-02T10:28:38.355Z,10.00
2018-10-02T10:29:38.249Z,10.30
2018-10-02T10:30:38.243Z,10.60
2018-10-02T10:31:38.226Z,12.00
2018-10-02T10:32:38.201Z,10.80
2018-10-02T10:33:38.248Z,10.70
2018-10-02T10:34:38.256Z,11.10
2018-10-02T10:35:38.142Z,11.60
2018-10-02T10:36:38.125Z,11.70
2018-10-02T10:37:38.106Z,12.70
2018-10-02T10:38:38.089Z,12.40
2018-10-02T10:39:38.070Z,12.70
2018-10-02T10:40:38.134Z,12.50
2018-10-02T10:41:38.046Z,12.90
2018-10-02T10:42:38.025Z,12.80
2018-10-02T10:43:37.994Z,12.80
2018-10-02T10:44:37.977Z,12.80
2018-10-02T10:45:37.956Z,13.50
2018-10-02T10:46:37.953Z,13.90
2018-10-02T10:47:37.966Z,13.50
2018-10-02T10:48:37.902Z,13.70
2018-10-02T10:49:37.882Z,13.40
2018-10-02T10:50:37.866Z,13.80
2018-10-02T10:51:37.847Z,14.00
2018-10-02T10:52:37.960Z,13.90
2018-10-02T10:53:37.814Z,14.30
2018-10-02T10:54:37.796Z,13.90
2018-10-02T10:55:37.780Z,14.20
2018-10-02T10:56:37.765Z,15.80
2018-10-02T10:57:37.740Z,14.30
2018-10-02T10:58:37.745Z,14.30
2018-10-02T10:59:37.705Z,14.20
2018-10-02T11:00:37.691Z,14.20
2018-10-02T11:01:37.665Z,15.40
2018-10-02T11:02:37.647Z,14.10
2018-10-02T11:03:37.632Z,14.60
2018-10-02T11:04:37.674Z,14.50
2018-10-02T11:05:37.596Z,14.00
2018-10-02T11:06:37.581Z,15.80
2018-10-02T11:07:37.559Z,14.00
2018-10-02T11:08:37.547Z,15.10
2018-10-02T11:09:37.637Z,15.00
2018-10-02T11:10:37.500Z,13.90
2018-10-02T11:11:37.490Z,14.50
2018-10-02T11:12:37.470Z,14.00
2018-10-02T11:13:37.467Z,12.50
2018-10-02T11:14:37.430Z,14.10
2018-10-02T11:15:37.408Z,13.60
2018-10-02T11:16:37.391Z,15.00
2018-10-02T11:17:37.373Z,14.80
2018-10-02T11:18:37.357Z,14.60
2018-10-02T11:19:37.357Z,14.00
2018-10-02T11:20:37.319Z,14.30
2018-10-02T11:21:37.302Z,15.50
2018-10-02T11:22:37.281Z,15.20
2018-10-02T11:23:37.272Z,14.20
2018-10-02T11:24:37.246Z,13.20
2018-10-02T11:25:37.234Z,15.90
2018-10-02T11:26:37.215Z,13.90
2018-10-02T11:27:37.192Z,14.30
2018-10-02T11:28:37.173Z,14.80
2018-10-02T11:29:37.160Z,14.40
2018-10-02T11:30:37.142Z,14.90
2018-10-02T11:31:37.123Z,15.10
2018-10-02T11:32:37.102Z,14.90
2018-10-02T11:33:37.082Z,15.90
2018-10-02T11:34:37.071Z,16.30
2018-10-02T11:35:37.149Z,15.10
2018-10-02T11:36:37.028Z,16.50
2018-10-02T11:37:37.054Z,16.00
2018-10-02T11:38:36.994Z,15.30
2018-10-02T11:39:36.976Z,15.70
2018-10-02T11:40:36.958Z,15.70
2018-10-02T11:41:36.938Z,15.70
2018-10-02T11:42:36.920Z,15.50
2018-10-02T11:43:36.925Z,15.30
2018-10-02T11:44:37.004Z,14.50
2018-10-02T11:45:36.872Z,15.40
2018-10-02T11:46:36.849Z,16.40
2018-10-02T11:47:36.838Z,16.30
2018-10-02T11:48:36.816Z,14.70
2018-10-02T11:49:36.873Z,15.90
2018-10-02T11:50:36.778Z,17.30
2018-10-02T11:51:36.762Z,17.70
2018-10-02T11:52:36.749Z,16.00
2018-10-02T11:53:36.726Z,15.50
2018-10-02T11:54:36.704Z,17.30
2018-10-02T11:55:36.769Z,15.60
2018-10-02T11:56:36.676Z,17.80
2018-10-02T11:57:36.723Z,18.50
2018-10-02T11:58:36.644Z,16.90
2018-10-02T11:59:36.622Z,17.50
2018-10-02T12:00:36.743Z,17.90
2018-10-02T12:01:36.626Z,18.60
2018-10-02T12:02:36.619Z,18.30
2018-10-02T12:03:36.572Z,18.70
2018-10-02T12:04:36.526Z,19.10
2018-10-02T12:05:36.512Z,18.00
2018-10-02T12:06:36.508Z,16.70
2018-10-02T12:07:36.475Z,18.80
2018-10-02T12:08:36.462Z,19.40
2018-10-02T12:09:36.439Z,18.60
2018-10-02T12:10:36.421Z,18.50
2018-10-02T12:11:36.750Z,17.30
2018-10-02T12:12:36.382Z,19.10
2018-10-02T12:13:36.574Z,17.80
2018-10-02T12:14:36.350Z,18.50
2018-10-02T12:15:36.335Z,19.40
2018-10-02T12:16:36.311Z,19.90
2018-10-02T12:17:36.291Z,19.40
2018-10-02T12:18:36.276Z,21.10
2018-10-02T12:19:36.324Z,21.00
2018-10-02T12:20:36.263Z,19.60
2018-10-02T12:21:36.221Z,19.40
2018-10-02T12:22:36.208Z,20.60
2018-10-02T12:23:36.193Z,20.90
2018-10-02T12:24:36.179Z,21.10
2018-10-02T12:25:36.152Z,20.90
2018-10-02T12:26:36.141Z,21.10
2018-10-02T12:27:36.126Z,19.40
2018-10-02T12:28:36.109Z,20.50
2018-10-02T12:29:36.077Z,21.90
2018-10-02T12:30:36.069Z,21.60
2018-10-02T12:31:36.047Z,20.00
2018-10-02T12:32:36.030Z,22.40
2018-10-02T12:33:36.012Z,22.10
2018-10-02T12:34:35.991Z,22.90
2018-10-02T12:35:35.976Z,23.70
2018-10-02T12:36:35.957Z,22.00
2018-10-02T12:37:35.940Z,22.80
2018-10-02T12:38:35.936Z,23.40
2018-10-02T12:39:35.911Z,23.40
2018-10-02T12:40:35.882Z,24.70
2018-10-02T12:41:35.866Z,23.30
2018-10-02T12:42:35.850Z,21.90
2018-10-02T12:43:35.832Z,23.10
2018-10-02T12:44:35.815Z,23.50
2018-10-02T12:45:35.804Z,21.70
2018-10-02T12:46:35.779Z,21.00
2018-10-02T12:47:35.762Z,20.80
2018-10-02T12:48:35.747Z,21.00
2018-10-02T12:49:35.726Z,21.00
2018-10-02T12:50:35.712Z,21.80
2018-10-02T12:51:35.707Z,21.50
2018-10-02T12:52:35.760Z,20.70
2018-10-02T12:53:35.654Z,21.50
2018-10-02T12:54:35.637Z,21.50
2018-10-02T12:55:35.630Z,17.70
2018-10-02T12:56:35.600Z,15.90
2018-10-02T12:57:35.583Z,17.80
2018-10-02T12:58:35.565Z,18.10
2018-10-02T12:59:35.551Z,18.70
2018-10-02T13:00:35.533Z,17.90
2018-10-02T13:01:35.856Z,16.60
2018-10-02T13:02:35.500Z,15.70
2018-10-02T13:03:35.481Z,16.50
2018-10-02T13:04:35.477Z,17.50
2018-10-02T13:05:35.452Z,17.50
2018-10-02T13:06:35.430Z,17.00
2018-10-02T13:07:35.414Z,16.70
2018-10-02T13:08:35.397Z,15.40
2018-10-02T13:09:35.380Z,15.70
2018-10-02T13:10:35.360Z,31.80
2018-10-02T13:11:35.344Z,25.50
2018-10-02T13:12:35.327Z,23.90